Time;durP1;ratioP1;P1;durP2;ratioP2;P2;SDS_P1;SDS_P2;PMS_P1;PMS_P2;Temp;Humidity;BMP_temperature;BMP_pressure;BME280_temperature;BME280_humidity;BME280_pressure;Samples;Min_cycle;Max_cycle;Signal;HPM_P1;HPM_P2
2022/06/07 00:01:34;;;;;;;6.70;2.33;;;;;;;12.23;100.00;99627.09;7391891;19;20018;-79
2022/06/07 00:04:01;;;;;;;9.57;2.63;;;;;;;12.23;100.00;99631.91;7386719;19;20007;-80
2022/06/07 00:06:28;;;;;;;4.32;1.52;;;;;;;12.22;100.00;99635.94;7384857;19;20023;-80
2022/06/07 00:08:54;;;;;;;5.68;1.75;;;;;;;12.21;100.00;99635.19;7386511;19;20489;-80
2022/06/07 00:11:22;;;;;;;3.83;1.70;;;;;;;12.16;100.00;99628.28;7389815;19;20011;-80
2022/06/07 00:13:48;;;;;;;3.63;2.33;;;;;;;12.15;100.00;99629.53;7385974;19;20353;-80
2022/06/07 00:16:16;;;;;;;5.00;1.88;;;;;;;12.15;100.00;99632.31;7387560;19;20342;-80
2022/06/07 00:18:43;;;;;;;5.53;2.20;;;;;;;12.18;100.00;99628.56;7388045;19;20039;-80
2022/06/07 00:21:09;;;;;;;2.58;1.85;;;;;;;12.17;100.00;99624.22;7390463;19;20476;-80
2022/06/07 00:23:36;;;;;;;5.50;2.22;;;;;;;12.16;100.00;99628.28;7387229;19;20025;-79
2022/06/07 00:26:03;;;;;;;4.57;1.85;;;;;;;12.21;100.00;99629.59;7390039;19;20045;-79
2022/06/07 00:28:29;;;;;;;4.95;1.48;;;;;;;12.18;100.00;99625.75;7387640;19;20019;-80
2022/06/07 00:30:56;;;;;;;1.38;1.20;;;;;;;12.16;100.00;99625.50;7390196;19;20018;-80
2022/06/07 00:33:24;;;;;;;3.63;1.60;;;;;;;12.18;100.00;99619.41;7385962;19;20026;-80
2022/06/07 00:35:51;;;;;;;3.25;1.08;;;;;;;12.21;100.00;99618.44;7384068;19;20049;-80
2022/06/07 00:38:17;;;;;;;6.55;2.50;;;;;;;12.21;100.00;99618.44;7385680;19;20019;-79
2022/06/07 00:40:43;;;;;;;2.50;1.15;;;;;;;12.19;100.00;99615.38;7385044;19;20030;-80
2022/06/07 00:43:10;;;;;;;7.88;2.40;;;;;;;12.23;100.00;99617.94;7383309;19;20018;-80
2022/06/07 00:45:38;;;;;;;4.72;1.58;;;;;;;12.24;100.00;99616.66;7382557;19;20062;-80
2022/06/07 00:48:05;;;;;;;6.68;2.03;;;;;;;12.27;100.00;99615.69;7384988;19;20018;-80
2022/06/07 00:50:40;;;;;;;4.28;1.77;;;;;;;12.28;100.00;99628.41;7386420;19;20019;-80
2022/06/07 00:53:20;;;;;;;5.53;2.08;;;;;;;12.24;100.00;99625.03;7383367;19;20105;-80
2022/06/07 00:55:47;;;;;;;6.13;2.77;;;;;;;12.22;100.00;99622.75;7387427;19;20036;-79
2022/06/07 00:58:14;;;;;;;4.30;1.70;;;;;;;12.17;100.00;99618.63;7383512;19;20023;-80
2022/06/07 01:00:44;;;;;;;5.22;2.25;;;;;;;12.17;100.00;99624.22;7384217;19;20014;-80
2022/06/07 01:03:12;;;;;;;7.05;2.13;;;;;;;12.14;100.00;99625.22;7383867;19;20389;-80
2022/06/07 01:05:42;;;;;;;4.97;1.88;;;;;;;12.09;100.00;99617.53;7381195;19;20015;-80
2022/06/07 01:11:04;;;;;;;5.25;1.88;;;;;;;13.23;100.00;99611.16;7385414;19;20029;-80
2022/06/07 01:13:34;;;;;;;4.07;1.88;;;;;;;12.44;100.00;99619.41;7384650;19;20033;-80
2022/06/07 01:16:21;;;;;;;6.03;1.85;;;;;;;12.26;100.00;99614.16;7383305;19;20014;-80
2022/06/07 01:18:47;;;;;;;1.70;1.45;;;;;;;12.21;100.00;99615.66;7387358;19;20031;-80
2022/06/07 01:21:29;;;;;;;2.55;1.92;;;;;;;12.18;100.00;99609.00;7396132;19;20066;-80
2022/06/07 01:23:56;;;;;;;4.10;1.70;;;;;;;12.15;100.00;99610.00;7392004;19;20018;-80
2022/06/07 01:26:27;;;;;;;4.65;2.08;;;;;;;12.15;100.00;99607.19;7389021;19;20017;-81
2022/06/07 01:28:54;;;;;;;3.70;1.75;;;;;;;12.15;100.00;99609.22;7386808;19;20037;-80
2022/06/07 01:31:20;;;;;;;4.28;1.20;;;;;;;12.79;100.00;99600.41;7386368;19;20018;-81
2022/06/07 01:33:47;;;;;;;4.95;1.83;;;;;;;13.31;100.00;99593.41;7380225;19;20018;-80
2022/06/07 01:36:16;;;;;;;10.43;2.33;;;;;;;13.44;100.00;99596.50;7380387;19;20019;-80
2022/06/07 01:41:53;;;;;;;5.53;2.10;;;;;;;13.58;100.00;99591.97;7382419;19;20018;-80
2022/06/07 01:44:17;;;;;;;9.45;2.15;;;;;;;13.57;100.00;99591.25;7382245;19;20042;-80
2022/06/07 01:46:43;;;;;;;2.90;1.75;;;;;;;13.58;100.00;99597.56;7380882;19;20014;-80
2022/06/07 01:49:09;;;;;;;3.08;1.48;;;;;;;13.60;100.00;99601.41;7384076;19;20022;-79
2022/06/07 01:51:35;;;;;;;3.58;2.10;;;;;;;13.53;100.00;99595.53;7393703;19;20444;-80
2022/06/07 01:54:02;;;;;;;3.40;1.42;;;;;;;13.60;100.00;99595.81;7387613;19;20023;-80
2022/06/07 01:56:28;;;;;;;4.55;1.55;;;;;;;13.60;100.00;99595.81;7390736;19;20018;-80
2022/06/07 01:58:56;;;;;;;6.32;2.45;;;;;;;13.73;100.00;99597.41;7387518;19;20014;-80
2022/06/07 02:01:23;;;;;;;3.75;1.33;;;;;;;13.72;100.00;99590.25;7392977;19;20022;-80
2022/06/07 02:03:49;;;;;;;7.80;3.28;;;;;;;13.75;100.00;99594.88;7390999;19;20018;-80
2022/06/07 02:06:15;;;;;;;6.05;2.40;;;;;;;13.73;100.00;99597.41;7387278;19;20030;-80
2022/06/07 02:08:46;;;;;;;4.90;2.55;;;;;;;13.64;100.00;99590.72;7390675;19;20062;-80
2022/06/07 02:11:17;;;;;;;4.75;1.60;;;;;;;13.65;100.00;99585.91;7392942;19;20097;-80
2022/06/07 02:13:51;;;;;;;12.70;3.00;;;;;;;13.69;100.00;99586.44;7387743;19;20018;-80
2022/06/07 02:16:17;;;;;;;13.77;3.50;;;;;;;13.73;100.00;99591.81;7391497;19;20551;-80
2022/06/07 02:18:43;;;;;;;13.35;3.55;;;;;;;13.82;100.00;99578.34;7392797;19;20010;-80
2022/06/07 02:21:16;;;;;;;3.90;2.58;;;;;;;13.81;100.00;99588.00;7393359;19;20036;-81
2022/06/07 02:23:43;;;;;;;4.30;1.45;;;;;;;13.79;100.00;99584.19;7388396;19;20333;-81
2022/06/07 02:26:32;;;;;;;9.73;1.95;;;;;;;13.78;100.00;99588.25;7391749;19;20018;-80
2022/06/07 02:29:13;;;;;;;6.43;2.03;;;;;;;13.78;100.00;99582.63;7389713;19;20364;-80
2022/06/07 02:31:44;;;;;;;2.40;1.50;;;;;;;13.75;100.00;99583.66;7392942;19;20333;-79
2022/06/07 02:34:14;;;;;;;5.47;2.13;;;;;;;13.80;100.00;99580.09;7390281;19;20041;-81
2022/06/07 02:36:40;;;;;;;5.00;2.72;;;;;;;13.74;100.00;99582.13;7389394;19;20026;-79
2022/06/07 02:39:06;;;;;;;10.10;2.90;;;;;;;13.75;100.00;99583.66;7389629;19;20014;-81
2022/06/07 02:41:35;;;;;;;10.23;2.42;;;;;;;13.75;100.00;99589.25;7394393;19;20018;-80
2022/06/07 02:44:02;;;;;;;4.93;1.90;;;;;;;13.77;100.00;99578.34;7389853;19;20058;-80
2022/06/07 02:46:28;;;;;;;4.13;2.45;;;;;;;13.79;100.00;99573.00;7387296;19;20022;-81
2022/06/07 02:48:54;;;;;;;3.13;2.15;;;;;;;13.78;100.00;99574.25;7390392;19;20026;-80
2022/06/07 02:51:21;;;;;;;7.72;2.20;;;;;;;13.72;100.00;99573.47;7390307;19;20011;-80
2022/06/07 02:53:50;;;;;;;4.20;1.83;;;;;;;13.66;100.00;99565.81;7388429;19;20014;-80
2022/06/07 02:56:16;;;;;;;4.03;2.40;;;;;;;13.72;100.00;99562.28;7389587;19;20015;-81
2022/06/07 02:58:42;;;;;;;2.42;1.20;;;;;;;13.78;100.00;99563.81;7389032;19;20018;-81
2022/06/07 03:01:09;;;;;;;3.90;2.13;;;;;;;13.76;100.00;99560.00;7390627;19;20033;-81
2022/06/07 03:03:40;;;;;;;3.90;1.02;;;;;;;13.82;100.00;99544.00;7388048;19;20109;-80
2022/06/07 03:06:09;;;;;;;5.35;1.95;;;;;;;13.86;100.00;99555.72;7386564;19;20021;-80
2022/06/07 03:08:37;;;;;;;6.43;2.78;;;;;;;13.79;100.00;99550.59;7387705;19;20375;-80
2022/06/07 03:11:04;;;;;;;4.35;2.42;;;;;;;13.81;100.00;99542.47;7390427;19;20022;-80
2022/06/07 03:13:33;;;;;;;6.25;2.05;;;;;;;13.87;100.00;99546.81;7387511;19;20011;-81
2022/06/07 03:16:00;;;;;;;6.80;1.85;;;;;;;13.68;100.00;99535.31;7387352;19;20042;-80
2022/06/07 03:18:26;;;;;;;3.60;1.48;;;;;;;13.68;100.00;99535.31;7389168;19;20021;-80
2022/06/07 03:20:53;;;;;;;6.90;1.58;;;;;;;13.60;100.00;99528.66;7389494;19;20074;-80
2022/06/07 03:23:21;;;;;;;7.55;1.27;;;;;;;13.57;100.00;99538.06;7387187;19;20106;-80
2022/06/07 03:26:11;;;;;;;4.60;1.67;;;;;;;13.54;100.00;99541.88;7390448;19;20018;-80
2022/06/07 03:28:45;;;;;;;5.30;1.60;;;;;;;13.55;100.00;99543.41;7386865;19;20018;-80
2022/06/07 03:31:17;;;;;;;6.82;2.45;;;;;;;13.52;100.00;99543.63;7390286;19;20011;-80
2022/06/07 03:33:47;;;;;;;5.05;1.17;;;;;;;13.57;100.00;99538.06;7387000;19;20022;-80
2022/06/07 03:36:17;;;;;;;5.85;2.47;;;;;;;13.50;100.00;99541.34;7387160;19;20014;-81
2022/06/07 03:38:43;;;;;;;3.97;1.73;;;;;;;13.51;100.00;99548.47;7386892;19;20471;-80
2022/06/07 03:41:16;;;;;;;7.80;2.65;;;;;;;13.57;100.00;99546.47;7390391;19;20039;-80
2022/06/07 03:43:44;;;;;;;3.92;1.92;;;;;;;13.59;100.00;99543.94;7386378;19;20014;-80
2022/06/07 03:46:14;;;;;;;6.22;2.45;;;;;;;13.59;100.00;99543.16;7385032;19;20022;-81
2022/06/07 03:48:43;;;;;;;7.03;1.77;;;;;;;13.59;100.00;99549.53;7387368;19;20018;-80
2022/06/07 03:51:12;;;;;;;8.75;3.47;;;;;;;13.54;100.00;99547.47;7389128;19;20014;-80
2022/06/07 03:53:40;;;;;;;9.10;2.97;;;;;;;13.55;100.00;99554.59;7386234;19;20035;-79
2022/06/07 03:56:07;;;;;;;5.28;1.92;;;;;;;13.58;100.00;99553.59;7391588;19;20011;-79
2022/06/07 03:58:39;;;;;;;4.10;2.03;;;;;;;13.58;100.00;99553.59;7386828;19;20018;-79
2022/06/07 04:01:15;;;;;;;19.05;3.35;;;;;;;13.65;100.00;99555.91;7390392;19;20018;-79
2022/06/07 04:03:47;;;;;;;8.48;2.38;;;;;;;13.72;100.00;99556.69;7385515;19;20082;-79
2022/06/07 04:06:32;;;;;;;3.13;1.45;;;;;;;13.82;100.00;99555.19;7384588;19;20015;-79
2022/06/07 04:09:07;;;;;;;6.97;2.08;;;;;;;13.76;100.00;99557.97;7386517;19;20014;-79
2022/06/07 04:11:37;;;;;;;12.70;3.20;;;;;;;13.79;100.00;99556.19;7388024;19;20014;-79
2022/06/07 04:14:04;;;;;;;3.60;2.13;;;;;;;13.88;100.00;99547.56;7386878;19;20018;-79
2022/06/07 04:16:31;;;;;;;4.22;1.92;;;;;;;13.91;100.00;99543.75;7395422;19;20054;-80
2022/06/07 04:19:04;;;;;;;9.70;3.30;;;;;;;13.93;100.00;99553.16;7392777;19;20027;-80
2022/06/07 04:21:30;;;;;;;7.35;2.10;;;;;;;13.88;100.00;99550.38;7393754;19;20018;-79
2022/06/07 04:24:06;;;;;;;13.77;3.60;;;;;;;13.95;100.00;99547.06;7385540;19;20022;-79
2022/06/07 04:26:34;;;;;;;8.07;3.30;;;;;;;13.93;100.00;99544.78;7385273;19;20081;-79
2022/06/07 04:29:00;;;;;;;9.02;2.95;;;;;;;14.00;100.00;99543.50;7386199;19;20023;-80
2022/06/07 04:31:27;;;;;;;6.60;2.88;;;;;;;14.03;100.00;99548.88;7389059;19;20014;-79
2022/06/07 04:34:01;;;;;;;4.35;1.88;;;;;;;14.04;100.00;99547.59;7384334;19;20011;-79
2022/06/07 04:36:28;;;;;;;5.20;2.63;;;;;;;14.13;100.00;99552.19;7385798;19;20085;-80
2022/06/07 04:38:57;;;;;;;14.88;2.55;;;;;;;14.29;100.00;99548.69;7386455;19;20054;-79
2022/06/07 04:41:28;;;;;;;9.73;3.28;;;;;;;14.32;100.00;99554.03;7388589;19;20499;-79
2022/06/07 04:44:01;;;;;;;4.38;2.95;;;;;;;14.32;100.00;99548.41;7384165;19;20022;-79
2022/06/07 04:46:28;;;;;;;9.63;2.35;;;;;;;14.30;100.00;99550.19;7384048;19;20799;-79
2022/06/07 04:48:57;;;;;;;18.42;4.03;;;;;;;14.25;100.00;99542.53;7385968;19;20022;-78
2022/06/07 04:51:34;;;;;;;6.00;2.55;;;;;;;14.24;100.00;99538.19;7388038;19;20021;-78
2022/06/07 04:54:08;;;;;;;8.73;3.42;;;;;;;14.14;100.00;99536.94;7383566;19;20036;-78
2022/06/07 04:56:40;;;;;;;7.60;3.15;;;;;;;14.17;100.00;99547.09;7384453;19;20360;-78
2022/06/07 04:59:06;;;;;;;6.40;3.03;;;;;;;14.18;100.00;99548.63;7383368;19;20015;-78
2022/06/07 05:01:37;;;;;;;4.35;2.70;;;;;;;14.26;100.00;99538.44;7387171;19;20396;-78
2022/06/07 05:04:09;;;;;;;12.20;2.92;;;;;;;14.31;100.00;99538.47;7383773;19;20670;-78
2022/06/07 05:06:40;;;;;;;9.88;2.85;;;;;;;14.32;100.00;99540.00;7382150;19;20022;-78
2022/06/07 05:09:20;;;;;;;5.10;2.33;;;;;;;13.47;100.00;99545.16;7385752;19;20049;-79
2022/06/07 05:11:52;;;;;;;14.57;3.28;;;;;;;13.35;100.00;99545.59;7388559;19;20085;-78
2022/06/07 05:14:21;;;;;;;10.55;3.20;;;;;;;13.28;100.00;99541.25;7383522;19;20014;-79
2022/06/07 05:16:51;;;;;;;7.90;3.20;;;;;;;13.35;100.00;99540.78;7386554;19;20420;-79
2022/06/07 05:19:22;;;;;;;9.15;4.00;;;;;;;13.39;100.00;99535.72;7387256;19;20026;-79
2022/06/07 05:21:57;;;;;;;10.38;2.30;;;;;;;13.45;100.00;99535.72;7388804;19;20498;-79
2022/06/07 05:24:23;;;;;;;8.05;3.10;;;;;;;13.47;100.00;99536.00;7388979;19;20022;-79
2022/06/07 05:26:53;;;;;;;7.72;2.85;;;;;;;13.52;100.00;99540.84;7388495;19;20492;-80
2022/06/07 05:29:33;;;;;;;6.20;3.13;;;;;;;14.63;100.00;99532.63;7388581;19;20014;-80
2022/06/07 05:32:01;;;;;;;5.82;3.28;;;;;;;14.86;100.00;99518.06;7393283;19;20051;-80
2022/06/07 05:34:27;;;;;;;8.38;3.08;;;;;;;15.02;100.00;99516.50;7389523;19;20578;-80
2022/06/07 05:36:54;;;;;;;11.75;4.30;;;;;;;15.10;100.00;99514.66;7389641;19;20011;-80
2022/06/07 05:39:23;;;;;;;16.33;3.40;;;;;;;15.19;100.00;99517.19;7391244;19;20480;-80
2022/06/07 05:41:51;;;;;;;7.32;2.20;;;;;;;15.26;100.00;99510.28;7394709;19;20093;-79
2022/06/07 05:44:22;;;;;;;13.38;3.78;;;;;;;15.29;100.00;99512.06;7389088;19;20015;-79
2022/06/07 05:46:52;;;;;;;14.68;4.75;;;;;;;15.29;100.00;99507.19;7388243;19;20039;-79
2022/06/07 05:49:38;;;;;;;15.88;4.50;;;;;;;15.02;100.00;99514.44;7389178;19;20010;-79
2022/06/07 05:52:09;;;;;;;10.05;3.85;;;;;;;14.39;100.00;99531.09;7388656;19;20010;-79
2022/06/07 05:54:38;;;;;;;9.77;3.35;;;;;;;14.30;100.00;99527.78;7387810;19;20015;-79
2022/06/07 05:57:07;;;;;;;11.65;3.42;;;;;;;14.31;100.00;99529.31;7390511;19;20546;-79
2022/06/07 05:59:34;;;;;;;10.73;3.13;;;;;;;14.38;100.00;99528.78;7390017;19;20010;-79
2022/06/07 06:02:00;;;;;;;8.93;3.00;;;;;;;14.42;100.00;99524.47;7395388;19;20053;-80
2022/06/07 06:04:32;;;;;;;8.25;3.22;;;;;;;14.45;100.00;99517.09;7387552;19;20427;-80
2022/06/07 06:06:59;;;;;;;9.25;3.80;;;;;;;14.53;100.00;99522.97;7387773;19;20014;-82
2022/06/07 06:12:16;;;;;;;13.65;3.22;;;;;;;14.57;100.00;99520.66;7387757;19;20038;-82
2022/06/07 06:15:01;;;;;;;7.32;2.42;;;;;;;14.59;100.00;99529.31;7389008;19;20334;-80
2022/06/07 06:17:30;;;;;;;8.38;3.55;;;;;;;14.68;100.00;99529.81;7389474;19;20022;-81
2022/06/07 06:20:04;;;;;;;7.88;3.20;;;;;;;14.79;100.00;99521.38;7390365;19;20010;-80
2022/06/07 06:22:35;;;;;;;16.35;4.60;;;;;;;14.84;100.00;99531.06;7389260;19;20575;-81
2022/06/07 06:25:05;;;;;;;5.43;2.75;;;;;;;14.86;100.00;99534.88;7389308;19;20021;-80
2022/06/07 06:27:33;;;;;;;8.15;3.42;;;;;;;14.87;100.00;99533.63;7386638;19;20022;-81
2022/06/07 06:30:03;;;;;;;34.30;4.65;;;;;;;14.89;100.00;99536.66;7387742;19;20021;-81
2022/06/07 06:32:32;;;;;;;8.15;2.70;;;;;;;14.89;100.00;99525.44;7386074;19;20374;-81
2022/06/07 06:34:59;;;;;;;10.52;3.40;;;;;;;14.95;100.00;99531.81;7385038;19;20035;-80
2022/06/07 06:37:28;;;;;;;13.52;3.15;;;;;;;15.06;100.00;99525.41;7390333;19;20021;-80
2022/06/07 06:39:58;;;;;;;11.07;2.92;;;;;;;15.11;100.00;99538.66;7390841;19;20018;-80
2022/06/07 06:42:24;;;;;;;11.48;4.90;;;;;;;15.09;100.00;99530.72;7390913;19;20401;-81
2022/06/07 06:45:19;;;;;;;11.80;3.72;;;;;;;15.09;100.00;99533.53;7387290;19;20037;-81
2022/06/07 06:47:49;;;;;;;24.05;4.97;;;;;;;15.09;100.00;99536.34;7387025;19;20511;-81
2022/06/07 06:50:16;;;;;;;12.48;4.35;;;;;;;15.11;100.00;99531.00;7387213;19;20045;-81
2022/06/07 06:52:44;;;;;;;14.98;4.03;;;;;;;15.11;100.00;99527.44;7386698;19;20014;-80
2022/06/07 06:55:11;;;;;;;12.57;4.25;;;;;;;15.17;100.00;99533.78;7389001;19;20038;-80
2022/06/07 06:57:37;;;;;;;9.80;3.60;;;;;;;15.28;100.00;99530.16;7389230;19;20015;-81
2022/06/07 07:00:09;;;;;;;12.13;3.95;;;;;;;15.35;100.00;99524.81;7389418;19;20025;-81
2022/06/07 07:02:38;;;;;;;9.65;4.35;;;;;;;15.42;100.00;99524.25;7389130;19;20051;-79
2022/06/07 07:05:11;;;;;;;15.85;4.20;;;;;;;15.49;100.00;99522.97;7385289;19;20014;-80
2022/06/07 07:07:40;;;;;;;12.77;5.18;;;;;;;15.56;100.00;99525.22;7387314;19;20014;-80
2022/06/07 07:10:10;;;;;;;10.75;3.53;;;;;;;15.61;100.00;99518.84;7388802;19;20011;-81
2022/06/07 07:12:37;;;;;;;8.68;4.15;;;;;;;15.68;100.00;99523.91;7395115;19;20824;-81
2022/06/07 07:15:13;;;;;;;12.07;3.88;;;;;;;15.71;100.00;99522.84;7391353;19;20029;-81
2022/06/07 07:17:59;;;;;;;13.95;4.35;;;;;;;15.75;100.00;99528.97;7391817;19;20026;-81
2022/06/07 07:20:28;;;;;;;15.18;4.30;;;;;;;15.74;100.00;99527.44;7390859;19;20022;-81
2022/06/07 07:22:57;;;;;;;13.73;3.70;;;;;;;15.72;100.00;99530.75;7389461;19;20033;-79
2022/06/07 07:25:24;;;;;;;15.18;3.70;;;;;;;15.79;100.00;99535.81;7391073;19;20478;-81
2022/06/07 07:27:51;;;;;;;13.57;4.68;;;;;;;15.90;100.00;99529.38;7388711;19;20106;-81
2022/06/07 07:30:22;;;;;;;12.83;3.67;;;;;;;16.00;100.00;99536.22;7387385;19;20014;-80
2022/06/07 07:32:48;;;;;;;13.38;4.95;;;;;;;16.15;100.00;99533.81;7387724;19;20270;-81
2022/06/07 07:35:14;;;;;;;12.77;4.85;;;;;;;16.39;100.00;99522.66;7385575;19;20025;-81
2022/06/07 07:37:53;;;;;;;18.38;4.95;;;;;;;16.66;100.00;99527.28;7387641;19;20014;-81
2022/06/07 07:40:20;;;;;;;16.40;6.25;;;;;;;17.32;100.00;99525.06;7388576;19;20486;-81
2022/06/07 07:42:46;;;;;;;14.55;5.07;;;;;;;17.16;100.00;99521.16;7387092;19;20695;-81
2022/06/07 07:45:26;;;;;;;24.88;6.20;;;;;;;17.38;100.00;99522.94;7387082;19;20014;-81
2022/06/07 07:47:55;;;;;;;20.75;5.35;;;;;;;17.62;100.00;99525.72;7386263;19;20606;-81
2022/06/07 07:50:21;;;;;;;14.95;4.75;;;;;;;17.71;100.00;99530.22;7387949;19;20018;-81
2022/06/07 07:52:52;;;;;;;21.75;6.18;;;;;;;17.75;100.00;99528.63;7387186;19;20077;-81
2022/06/07 07:55:18;;;;;;;16.65;6.18;;;;;;;17.85;100.00;99526.94;7388121;19;20014;-81
2022/06/07 07:57:47;;;;;;;23.27;5.28;;;;;;;17.87;100.00;99526.41;7386684;19;20026;-82
2022/06/07 08:00:18;;;;;;;13.05;5.32;;;;;;;17.87;100.00;99534.84;7388293;19;20022;-81
2022/06/07 08:02:52;;;;;;;19.65;5.72;;;;;;;17.88;100.00;99542.78;7387074;19;20019;-81
2022/06/07 08:05:31;;;;;;;17.60;5.35;;;;;;;17.86;100.00;99538.97;7385117;19;20091;-82
2022/06/07 08:07:57;;;;;;;14.77;5.72;;;;;;;17.81;100.00;99529.31;7385529;19;20022;-82
2022/06/07 08:10:24;;;;;;;24.08;6.70;;;;;;;17.79;100.00;99523.44;7389357;19;20036;-82
2022/06/07 08:12:50;;;;;;;17.23;7.47;;;;;;;17.81;100.00;99522.91;7386531;19;20014;-82
2022/06/07 08:15:20;;;;;;;11.32;4.40;;;;;;;17.94;100.00;99523.75;7386934;19;20021;-81
2022/06/07 08:17:46;;;;;;;18.67;6.37;;;;;;;18.14;100.00;99531.66;7386808;19;20558;-82
2022/06/07 08:20:13;;;;;;;18.30;5.45;;;;;;;18.31;100.00;99522.16;7387978;19;20483;-82
2022/06/07 08:22:39;;;;;;;12.68;5.13;;;;;;;18.34;100.00;99523.91;7385218;19;20089;-80
2022/06/07 08:25:09;;;;;;;14.43;4.28;;;;;;;18.20;100.00;99523.09;7386927;19;20053;-81
2022/06/07 08:27:35;;;;;;;21.88;5.78;;;;;;;17.99;100.00;99531.38;7386136;19;20056;-82
2022/06/07 08:30:04;;;;;;;14.25;4.50;;;;;;;17.74;100.00;99527.09;7386469;19;20510;-81
2022/06/07 08:32:31;;;;;;;11.25;4.72;;;;;;;17.58;100.00;99530.16;7385935;19;20026;-82
2022/06/07 08:37:43;;;;;;;12.55;3.97;;;;;;;17.41;100.00;99516.25;7387259;19;20014;-81
2022/06/07 08:40:20;;;;;;;13.27;4.25;;;;;;;17.39;100.00;99518.81;7385694;19;20014;-81
2022/06/07 08:42:53;;;;;;;10.82;3.17;;;;;;;17.41;100.00;99521.88;7384588;19;20042;-82
2022/06/07 08:45:23;;;;;;;11.98;4.80;;;;;;;17.45;100.00;99516.72;7384930;19;20014;-80
2022/06/07 08:48:06;;;;;;;8.18;3.05;;;;;;;17.47;100.00;99519.75;7383331;19;20018;-80
2022/06/07 08:50:38;;;;;;;10.30;3.60;;;;;;;17.44;100.00;99512.38;7386693;19;20368;-80
2022/06/07 08:53:15;;;;;;;12.15;3.92;;;;;;;17.60;100.00;99511.44;7383103;19;20019;-81
2022/06/07 08:55:54;;;;;;;17.42;4.70;;;;;;;17.85;100.00;99510.03;7388478;19;20034;-81
2022/06/07 08:58:28;;;;;;;10.73;3.13;;;;;;;18.01;100.00;99516.72;7387223;19;20051;-81
2022/06/07 09:00:59;;;;;;;9.30;3.65;;;;;;;18.10;100.00;99508.63;7393782;19;20467;-81
2022/06/07 09:03:53;;;;;;;7.78;3.25;;;;;;;18.26;100.00;99509.66;7389982;19;20018;-81
2022/06/07 09:06:47;;;;;;;13.15;4.13;;;;;;;18.35;100.00;99508.50;7390194;19;20019;-81
2022/06/07 09:09:16;;;;;;;9.77;3.42;;;;;;;18.39;100.00;99506.13;7392330;19;20019;-82
2022/06/07 09:12:14;;;;;;;10.13;3.70;;;;;;;18.55;100.00;99507.94;7396035;19;20475;-82
2022/06/07 09:14:53;;;;;;;6.63;2.78;;;;;;;18.75;100.00;99504.53;7392626;19;20033;-81
2022/06/07 09:17:21;;;;;;;15.60;3.65;;;;;;;19.10;100.00;99492.06;7393928;19;20018;-80
2022/06/07 09:19:49;;;;;;;8.88;3.78;;;;;;;19.24;100.00;99494.31;7397406;19;20014;-81
2022/06/07 09:22:25;;;;;;;9.52;2.88;;;;;;;19.43;100.00;99486.50;7393102;19;20015;-80
2022/06/07 09:25:24;;;;;;;6.25;2.70;;;;;;;19.66;100.00;99493.19;7391220;19;20058;-80
2022/06/07 09:27:50;;;;;;;14.88;4.55;;;;;;;20.00;100.00;99483.97;7388510;19;20479;-79
2022/06/07 09:30:17;;;;;;;9.57;3.60;;;;;;;19.86;100.00;99485.31;7391145;19;20042;-79
2022/06/07 09:32:49;;;;;;;10.88;3.13;;;;;;;20.00;100.00;99483.97;7386929;19;20035;-80
2022/06/07 09:35:20;;;;;;;11.32;4.00;;;;;;;19.76;100.00;99485.03;7389091;19;20088;-78
2022/06/07 09:37:52;;;;;;;8.68;3.20;;;;;;;19.76;100.00;99475.78;7393204;19;20047;-79
2022/06/07 09:40:34;;;;;;;8.93;3.75;;;;;;;19.57;100.00;99476.72;7391816;19;20029;-79
2022/06/07 09:43:12;;;;;;;9.45;2.58;;;;;;;19.50;100.00;99474.56;7389702;19;20494;-79
2022/06/07 09:45:52;;;;;;;7.03;1.85;;;;;;;19.38;100.00;99467.59;7388802;19;20022;-80
2022/06/07 09:48:27;;;;;;;11.23;3.17;;;;;;;19.54;100.00;99468.56;7392876;19;20471;-80
2022/06/07 09:51:08;;;;;;;11.30;2.90;;;;;;;19.65;100.00;99465.50;7394459;19;20353;-79
2022/06/07 09:53:38;;;;;;;8.48;3.75;;;;;;;20.06;100.00;99462.72;7389462;19;20014;-79
2022/06/07 09:56:24;;;;;;;11.95;4.30;;;;;;;21.11;100.00;99464.91;7394366;19;20521;-80
2022/06/07 09:59:16;;;;;;;10.32;3.80;;;;;;;21.48;100.00;99452.25;7391355;19;20026;-79
2022/06/07 10:01:59;;;;;;;11.90;3.60;;;;;;;21.63;100.00;99463.66;7391497;19;20070;-80
2022/06/07 10:04:31;;;;;;;10.13;3.08;;;;;;;21.96;100.00;99461.88;7390963;19;20070;-81
2022/06/07 10:07:00;;;;;;;10.75;3.53;;;;;;;22.16;100.00;99458.09;7404109;19;20018;-80
2022/06/07 10:09:43;;;;;;;12.63;3.85;;;;;;;22.14;100.00;99457.91;7408701;19;20010;-80
2022/06/07 10:12:38;;;;;;;8.23;3.35;;;;;;;22.12;100.00;99449.97;7408842;19;20018;-80
2022/06/07 10:15:32;;;;;;;11.10;3.60;;;;;;;21.94;100.00;99451.06;7390534;19;20019;-80
2022/06/07 10:18:03;;;;;;;7.47;3.55;;;;;;;21.97;100.00;99464.13;7391653;19;20017;-79
2022/06/07 10:20:44;;;;;;;9.63;3.95;;;;;;;22.06;100.00;99449.41;7391357;19;20010;-79
2022/06/07 10:23:26;;;;;;;7.30;3.05;;;;;;;21.93;100.00;99458.09;7391246;19;20022;-80
2022/06/07 10:26:11;;;;;;;11.45;4.15;;;;;;;22.24;100.00;99451.13;7394765;19;20022;-79
2022/06/07 10:28:57;;;;;;;13.88;4.50;;;;;;;22.59;100.00;99450.22;7391948;19;20471;-78
2022/06/07 10:31:26;;;;;;;10.48;3.67;;;;;;;22.71;100.00;99450.59;7393291;19;20022;-79
2022/06/07 10:34:03;;;;;;;21.63;4.85;;;;;;;23.04;100.00;99454.31;7390480;19;20018;-79
2022/06/07 10:36:56;;;;;;;10.43;3.88;;;;;;;23.49;100.00;99448.50;7391089;19;20026;-79
2022/06/07 10:39:38;;;;;;;5.18;2.42;;;;;;;23.45;100.00;99451.00;7391141;19;20373;-79
2022/06/07 10:42:13;;;;;;;7.53;2.72;;;;;;;22.76;100.00;99446.03;7394479;19;20022;-80
2022/06/07 10:44:49;;;;;;;5.55;2.45;;;;;;;21.73;100.00;99450.44;7387462;19;20014;-80
2022/06/07 10:47:34;;;;;;;9.68;3.40;;;;;;;21.30;100.00;99441.97;7388424;19;20027;-80
2022/06/07 10:50:29;;;;;;;7.20;3.72;;;;;;;21.27;100.00;99443.09;7387152;19;20022;-80
2022/06/07 10:53:02;;;;;;;5.68;2.95;;;;;;;21.14;100.00;99441.91;7387430;19;20019;-80
2022/06/07 10:55:35;;;;;;;10.80;3.75;;;;;;;21.48;100.00;99446.59;7390213;19;20019;-79
2022/06/07 10:58:24;;;;;;;9.38;3.35;;;;;;;21.97;100.00;99435.78;7388801;19;20479;-80
2022/06/07 11:01:19;;;;;;;8.73;2.50;;;;;;;21.99;100.00;99438.81;7391440;19;20018;-78
2022/06/07 11:10:32;;;;;;;10.02;2.80;;;;;;;21.30;100.00;99424.97;7392992;19;20022;-81
2022/06/07 11:13:23;;;;;;;3.58;1.73;;;;;;;21.10;100.00;99430.19;7388830;19;20768;-81
2022/06/07 11:16:09;;;;;;;;;;;;;;;20.87;100.00;99440.59;7391388;19;20026;-80
2022/06/07 11:18:36;;;;;;;8.88;3.33;;;;;;;20.84;100.00;99433.22;7390515;19;20260;-81
2022/06/07 11:21:02;;;;;;;10.45;3.10;;;;;;;20.87;100.00;99432.09;7390585;19;20015;-81
2022/06/07 11:23:33;;;;;;;9.10;2.60;;;;;;;21.84;100.00;99430.28;7387218;19;20015;-80
2022/06/07 11:26:14;;;;;;;6.57;1.85;;;;;;;22.20;100.00;99427.31;7388955;19;20097;-82
2022/06/07 11:28:40;;;;;;;5.78;2.25;;;;;;;21.26;100.00;99425.34;7397814;19;20027;-86
2022/06/07 11:31:15;;;;;;;4.78;2.38;;;;;;;21.15;100.00;99425.66;7400306;19;20014;-87
2022/06/07 11:33:47;;;;;;;9.40;2.95;;;;;;;21.11;100.00;99420.34;7396969;19;20025;-86
2022/06/07 11:36:13;;;;;;;10.77;2.47;;;;;;;22.90;100.00;99428.22;7398313;19;20468;-86
2022/06/07 11:39:23;;;;;;;5.45;1.92;;;;;;;23.53;100.00;99426.13;7396350;19;20033;-87
2022/06/07 11:41:52;;;;;;;6.65;3.25;;;;;;;23.98;100.00;99417.31;7396398;19;20018;-88
2022/06/07 11:44:18;;;;;;;7.03;2.80;;;;;;;24.28;100.00;99412.78;7396003;19;20094;-86
2022/06/07 11:46:51;;;;;;;4.70;2.50;;;;;;;24.52;100.00;99411.97;7394683;19;20045;-85
2022/06/07 11:49:29;;;;;;;10.20;2.72;;;;;;;24.72;100.00;99422.22;7396433;19;20078;-84
2022/06/07 11:51:58;;;;;;;7.13;2.45;;;;;;;24.68;100.00;99419.81;7398098;19;20423;-85
2022/06/07 11:54:43;;;;;;;3.45;1.95;;;;;;;24.63;100.00;99420.03;7393543;19;20014;-87
2022/06/07 11:57:32;;;;;;;6.93;2.15;;;;;;;24.73;100.00;99412.38;7396670;19;20027;-87
2022/06/07 12:00:16;;;;;;;3.05;1.67;;;;;;;24.83;100.00;99410.38;7397199;19;20019;-84
2022/06/07 12:03:08;;;;;;;6.70;2.45;;;;;;;25.18;100.00;99400.50;7393056;19;20035;-82